Nearby METAR Reports

 

EGUW - Wattisham Raf, United Kingdom
Distance from station: SW 12mi, 19km
Updated: 19/09/2021 02:50
Mostly cloudy
Mostly cloudy
 Wind from SE
Wind: SE 5 mph , 7 km/h
Temperature: 16°C
Dew Point: 14°C
Humidity: 88%
Barometer: 1013 hPa
Clouds: Mostly cloudy
Visibility: 6 miles , 10 km
Cloud details: Few Clouds 1524 m
Mostly cloudy 3353 m
2021/09/19 01:50 EGUW 190150Z AUTO 13004KT 9999 FEW050/// BKN110/// 16/14 Q1013
EGUL - Lakenheath Raf, United Kingdom
Distance from station: WNW 29mi, 47km
Updated: 19/09/2021 02:56
Mostly cloudy
Mostly cloudy
 Wind from SE
Wind: SE 8 mph , 13 km/h
Temperature: 17°C
Dew Point: 13°C
Humidity: 77%
Barometer: 1012.5 hPa
Clouds: Mostly cloudy
Visibility: 6 miles , 10 km
Cloud details: Mostly cloudy 3353 m
2021/09/19 01:56 EGUL 190156Z AUTO 13007KT 9999 BKN110 17/13 A2990 RMK AO2 SLP128 T01650134 TSNO $
 
EGUN - Mildenhall Raf, United Kingdom
Distance from station: WNW 32mi, 51km
Updated: 19/09/2021 02:56
Mist, Mostly cloudy
Mist, Mostly cloudy
 Wind from SE
Wind: SE 9 mph , 15 km/h
Temperature: 16°C
Dew Point: 16°C
Humidity: 100%
Barometer: 1012.9 hPa
Summary: Mist
Clouds: Mostly cloudy
Visibility: 5 miles , 8 km
Cloud details: Mostly cloudy 3658 m
2021/09/19 01:56 EGUN 190156Z 13008KT 8000 BR BKN120 16/16 A2991 RMK AO2A SLP131 T01600160 $
EGSH - Norwich Wea Cntr, United Kingdom
Distance from station: N 32mi, 52km
Updated: 19/09/2021 03:20
Clear
Clear
 Wind from SE
Wind: SE 7 mph , 11 km/h
Temperature: 17°C
Dew Point: 15°C
Humidity: 88%
Barometer: 1014 hPa
Clouds: Clear
Visibility: 6 miles , 10 km
2021/09/19 02:20 EGSH 190220Z AUTO 14006KT 9999 NCD 17/15 Q1014
 
EGYM - Marham Raf, United Kingdom
Distance from station: NW 39mi, 62km
Updated: 19/09/2021 02:50
Overcast
Overcast
 Wind from ESE
Wind: ESE 9 mph , 15 km/h
Temperature: 17°C
Dew Point: 14°C
Humidity: 83%
Barometer: 1013 hPa
Clouds: Overcast
Visibility: 6 miles , 10 km
Cloud details: Overcast 2743 m
2021/09/19 01:50 EGYM 190150Z AUTO 12008KT 9999 OVC090/// 17/14 Q1013
EGSC - Cambridge, United Kingdom
Distance from station: W 43mi, 69km
Updated: 17/09/2021 16:20
NOT Current
Partly cloudy
Partly cloudy
 Wind from SW
Wind: SW 6 mph , 9 km/h
Temperature: 21°C
Dew Point: 12°C
Humidity: 57%
Barometer: 1013 hPa
Clouds: Partly cloudy
Visibility: 6 miles , 10 km
Cloud details: Few Clouds 823 m
Partly cloudy 1372 m
2021/09/17 15:20 EGSC 171520Z 22005KT 9999 FEW027 SCT045 21/12 Q1013
 
EGSS - Stansted Airport, United Kingdom
Distance from station: WSW 47mi, 76km
Updated: 19/09/2021 03:20
Haze, Clear
Haze, Clear
 Wind from E
Wind: E 7 mph , 11 km/h
Temperature: 16°C
Dew Point: 15°C
Humidity: 94%
Barometer: 1013 hPa
Summary: Haze
Clouds: Clear
Visibility: 2 miles , 4 km
2021/09/19 02:20 EGSS 190220Z AUTO 10006KT 3800 HZ NCD 16/15 Q1013
EGMC - Southend-On-Sea, United Kingdom
Distance from station: SSW 50mi, 80km
Updated: 19/09/2021 03:20
Partly cloudy
Partly cloudy
 Wind from E
Wind: E 2 mph , 4 km/h
Temperature: 13°C
Dew Point: 12°C
Humidity: 94%
Barometer: 1013 hPa
Clouds: Partly cloudy
Visibility: 6 miles , 9 km
2021/09/19 02:20 EGMC 190220Z 09002KT 9000 NSC 13/12 Q1013